PWSweather.com
Personal Weather Stations
Station Observations
WAIROAHB
Wairoa, Northern Hawkes Bay -NZ 4108

WairoaNorthern Hawkes Bay -NZ 4108

Lat: -39.04516934, Lon: 177.4263989

Elevation: 156

Station Type: WS3083

http://wairoa.net/weather/index.htm

Latest ConditionsUpdated 10:00:01 AM GMT+12:12 Sunday, Feb 24, 2019
Currently Today's Max Today's Min Today's Average
Temperature 68.0°F20.0°C 68.0°F20.0°C 57.4°F14.1°C 60.6°F15.9°C
Dew Point 52.2°F11.2°C 59.6°F15.3°C 50.4°F10.2°C 53.3°F11.8°C
Winds 3.1 mph WSW5.0 kmh WSW 6.9 mph -11.1 kmh - - 3.9 mph 6.3 kmh
Wind Gusts 7.6 mph12.2 kmh 12.1 mph19.5 kmh - -
Humidity 57% 99% 57% 77%
Pressure 29.47 in998.0 mb 29.47 in998.0 mb 29.41 in995.9 mb -
Precipitation - 0.01 in0.3 mm - -
Hour Temp Dew Point Humidity Winds Wind Gusts Pressure Precip Precip Rate Daily Precip Total
10:00 AM 68.0°F20.0°C 52.2°F11.2°C 57% 3.1 mph WSW5.0 kmh WSW 7.6 mph12.2 kmh 29.47 in998.0 mb 0.01 in0.3 mm 0.00 in0.0 mm 0.01 in0.3 mm
09:50 AM 68.0°F20.0°C 55.8°F13.2°C 65% 0.7 mph W1.1 kmh W 3.8 mph6.1 kmh 29.46 in997.6 mb 0.01 in0.3 mm 0.00 in0.0 mm 0.01 in0.3 mm
09:40 AM 64.9°F18.3°C 56.5°F13.6°C 74% 0.7 mph NW1.1 kmh NW 4.5 mph7.2 kmh 29.45 in997.3 mb 0.01 in0.3 mm 0.00 in0.0 mm 0.01 in0.3 mm
09:30 AM 63.7°F17.6°C 55.3°F12.9°C 74% 1.6 mph NNW2.6 kmh NNW 5.4 mph8.7 kmh 29.46 in997.6 mb 0.01 in0.3 mm 0.00 in0.0 mm 0.01 in0.3 mm
09:20 AM 64.0°F17.8°C 56.0°F13.3°C 75% 3.1 mph N5.0 kmh N 4.5 mph7.2 kmh 29.46 in997.6 mb 0.01 in0.3 mm 0.06 in1.5 mm 0.01 in0.3 mm
09:10 AM 63.5°F17.5°C 56.2°F13.4°C 77% Calm Calm 3.1 mph5.0 kmh 29.46 in997.6 mb 0.00 in0.0 mm 0.00 in0.0 mm 0.00 in0.0 mm
09:00 AM 62.4°F16.9°C 55.5°F13.1°C 78% 1.6 mph NW2.6 kmh NW 4.5 mph7.2 kmh 29.46 in997.6 mb 0.00 in0.0 mm 0.00 in0.0 mm 0.00 in0.0 mm
08:50 AM 62.2°F16.8°C 55.0°F12.8°C 77% 3.1 mph NW5.0 kmh NW 4.5 mph7.2 kmh 29.46 in997.6 mb 0.00 in0.0 mm 0.00 in0.0 mm 0.00 in0.0 mm
08:40 AM 62.4°F16.9°C 54.4°F12.4°C 75% 1.6 mph NNW2.6 kmh NNW 4.5 mph7.2 kmh 29.46 in997.6 mb 0.00 in0.0 mm 0.00 in0.0 mm 0.00 in0.0 mm
08:30 AM 62.4°F16.9°C 53.7°F12.1°C 73% 3.8 mph NW6.1 kmh NW 6.9 mph11.1 kmh 29.45 in997.3 mb 0.00 in0.0 mm 0.00 in0.0 mm 0.00 in0.0 mm
08:20 AM 62.8°F17.1°C 53.3°F11.8°C 71% 3.8 mph NW6.1 kmh NW 8.3 mph13.4 kmh 29.45 in997.3 mb 0.00 in0.0 mm 0.00 in0.0 mm 0.00 in0.0 mm
08:10 AM 63.5°F17.5°C 52.4°F11.3°C 67% 3.1 mph NW5.0 kmh NW 9.8 mph15.8 kmh 29.45 in997.3 mb 0.00 in0.0 mm 0.00 in0.0 mm 0.00 in0.0 mm
08:00 AM 64.0°F17.8°C 52.5°F11.4°C 66% 6.9 mph NNW11.1 kmh NNW 10.7 mph17.2 kmh 29.44 in997.0 mb 0.00 in0.0 mm 0.00 in0.0 mm 0.00 in0.0 mm
07:50 AM 64.4°F18.0°C 52.8°F11.6°C 66% 5.4 mph NNW8.7 kmh NNW 9.2 mph14.8 kmh 29.45 in997.3 mb 0.00 in0.0 mm 0.00 in0.0 mm 0.00 in0.0 mm
07:40 AM 65.8°F18.8°C 53.3°F11.8°C 64% 6.0 mph NNE9.7 kmh NNE 8.3 mph13.4 kmh 29.45 in997.3 mb 0.00 in0.0 mm 0.00 in0.0 mm 0.00 in0.0 mm
07:30 AM 67.3°F19.6°C 54.7°F12.6°C 64% 4.5 mph N7.2 kmh N 9.2 mph14.8 kmh 29.45 in997.3 mb 0.00 in0.0 mm 0.00 in0.0 mm 0.00 in0.0 mm
07:20 AM 65.3°F18.5°C 53.3°F11.8°C 65% 6.0 mph N9.7 kmh N 9.8 mph15.8 kmh 29.44 in997.0 mb 0.00 in0.0 mm 0.00 in0.0 mm 0.00 in0.0 mm
07:10 AM 64.4°F18.0°C 52.8°F11.6°C 66% 3.8 mph N6.1 kmh N 7.6 mph12.2 kmh 29.43 in996.6 mb 0.00 in0.0 mm 0.00 in0.0 mm 0.00 in0.0 mm
07:00 AM 63.5°F17.5°C 51.5°F10.8°C 65% 5.4 mph N8.7 kmh N 8.3 mph13.4 kmh 29.43 in996.6 mb 0.00 in0.0 mm 0.00 in0.0 mm 0.00 in0.0 mm
06:50 AM 63.0°F17.2°C 51.8°F11.0°C 67% 3.8 mph NNW6.1 kmh NNW 6.9 mph11.1 kmh 29.43 in996.6 mb 0.00 in0.0 mm 0.00 in0.0 mm 0.00 in0.0 mm
06:40 AM 61.7°F16.5°C 51.8°F11.0°C 70% 3.1 mph NNW5.0 kmh NNW 6.9 mph11.1 kmh 29.43 in996.6 mb 0.00 in0.0 mm 0.00 in0.0 mm 0.00 in0.0 mm
06:30 AM 60.4°F15.8°C 51.8°F11.0°C 73% 3.8 mph NW6.1 kmh NW 7.6 mph12.2 kmh 29.43 in996.6 mb 0.00 in0.0 mm 0.00 in0.0 mm 0.00 in0.0 mm
06:20 AM 59.5°F15.3°C 51.3°F10.7°C 74% 3.8 mph NW6.1 kmh NW 9.2 mph14.8 kmh 29.42 in996.3 mb 0.00 in0.0 mm 0.00 in0.0 mm 0.00 in0.0 mm
06:10 AM 58.6°F14.8°C 51.1°F10.6°C 76% 4.5 mph NW7.2 kmh NW 6.0 mph9.7 kmh 29.42 in996.3 mb 0.00 in0.0 mm 0.00 in0.0 mm 0.00 in0.0 mm
06:00 AM 57.9°F14.4°C 50.8°F10.4°C 77% 3.1 mph NW5.0 kmh NW 6.0 mph9.7 kmh 29.43 in996.6 mb 0.00 in0.0 mm 0.00 in0.0 mm 0.00 in0.0 mm
05:50 AM 57.9°F14.4°C 50.8°F10.4°C 77% 3.1 mph NW5.0 kmh NW 7.6 mph12.2 kmh 29.42 in996.3 mb 0.00 in0.0 mm 0.00 in0.0 mm 0.00 in0.0 mm
05:40 AM 57.6°F14.2°C 50.4°F10.2°C 77% 3.1 mph NW5.0 kmh NW 5.4 mph8.7 kmh 29.43 in996.6 mb 0.00 in0.0 mm 0.00 in0.0 mm 0.00 in0.0 mm
05:30 AM 57.9°F14.4°C 50.4°F10.2°C 76% 0.7 mph NNW1.1 kmh NNW 6.9 mph11.1 kmh 29.43 in996.6 mb 0.00 in0.0 mm 0.00 in0.0 mm 0.00 in0.0 mm
05:20 AM 58.1°F14.5°C 50.6°F10.3°C 76% 3.1 mph NNW5.0 kmh NNW 9.2 mph14.8 kmh 29.41 in995.9 mb 0.00 in0.0 mm 0.00 in0.0 mm 0.00 in0.0 mm
05:10 AM 58.1°F14.5°C 50.6°F10.3°C 76% 3.8 mph NNW6.1 kmh NNW 8.3 mph13.4 kmh 29.41 in995.9 mb 0.00 in0.0 mm 0.00 in0.0 mm 0.00 in0.0 mm
05:00 AM 57.7°F14.3°C 50.9°F10.5°C 78% 4.5 mph NNW7.2 kmh NNW 8.3 mph13.4 kmh 29.41 in995.9 mb 0.00 in0.0 mm 0.00 in0.0 mm 0.00 in0.0 mm
04:50 AM 57.6°F14.2°C 51.4°F10.8°C 80% 4.5 mph NNW7.2 kmh NNW 6.9 mph11.1 kmh 29.41 in995.9 mb 0.00 in0.0 mm 0.00 in0.0 mm 0.00 in0.0 mm
04:40 AM 57.4°F14.1°C 51.6°F10.9°C 81% 3.1 mph NNW5.0 kmh NNW 6.0 mph9.7 kmh 29.41 in995.9 mb 0.00 in0.0 mm 0.00 in0.0 mm 0.00 in0.0 mm
04:30 AM 57.9°F14.4°C 51.8°F11.0°C 80% 1.6 mph NW2.6 kmh NW 4.5 mph7.2 kmh 29.41 in995.9 mb 0.00 in0.0 mm 0.00 in0.0 mm 0.00 in0.0 mm
04:20 AM 58.3°F14.6°C 51.8°F11.0°C 79% 1.6 mph NNW2.6 kmh NNW 4.5 mph7.2 kmh 29.41 in995.9 mb 0.00 in0.0 mm 0.00 in0.0 mm 0.00 in0.0 mm
04:10 AM 58.8°F14.9°C 52.0°F11.1°C 78% 2.2 mph NW3.5 kmh NW 6.0 mph9.7 kmh 29.42 in996.3 mb 0.00 in0.0 mm 0.00 in0.0 mm 0.00 in0.0 mm
04:00 AM 59.2°F15.1°C 52.0°F11.1°C 77% 3.8 mph N6.1 kmh N 10.7 mph17.2 kmh 29.42 in996.3 mb 0.00 in0.0 mm 0.00 in0.0 mm 0.00 in0.0 mm
03:50 AM 58.8°F14.9°C 52.3°F11.3°C 79% 5.4 mph N8.7 kmh N 9.8 mph15.8 kmh 29.41 in995.9 mb 0.00 in0.0 mm 0.00 in0.0 mm 0.00 in0.0 mm
03:40 AM 58.6°F14.8°C 52.5°F11.4°C 80% 3.1 mph N5.0 kmh N 9.2 mph14.8 kmh 29.42 in996.3 mb 0.00 in0.0 mm 0.00 in0.0 mm 0.00 in0.0 mm
03:30 AM 58.6°F14.8°C 53.2°F11.8°C 82% 5.4 mph N8.7 kmh N 8.3 mph13.4 kmh 29.42 in996.3 mb 0.00 in0.0 mm 0.00 in0.0 mm 0.00 in0.0 mm
03:20 AM 58.6°F14.8°C 53.2°F11.8°C 82% 3.8 mph NNW6.1 kmh NNW 9.8 mph15.8 kmh 29.42 in996.3 mb 0.00 in0.0 mm 0.00 in0.0 mm 0.00 in0.0 mm
03:10 AM 58.6°F14.8°C 52.8°F11.6°C 81% 3.8 mph N6.1 kmh N 9.2 mph14.8 kmh 29.42 in996.3 mb 0.00 in0.0 mm 0.00 in0.0 mm 0.00 in0.0 mm
03:00 AM 58.8°F14.9°C 52.7°F11.5°C 80% 4.5 mph N7.2 kmh N 9.8 mph15.8 kmh 29.42 in996.3 mb 0.00 in0.0 mm 0.00 in0.0 mm 0.00 in0.0 mm
02:50 AM 59.2°F15.1°C 52.3°F11.3°C 78% 5.4 mph N8.7 kmh N 8.3 mph13.4 kmh 29.43 in996.6 mb 0.00 in0.0 mm 0.00 in0.0 mm 0.00 in0.0 mm
02:40 AM 59.4°F15.2°C 52.2°F11.2°C 77% 4.5 mph N7.2 kmh N 9.2 mph14.8 kmh 29.43 in996.6 mb 0.00 in0.0 mm 0.00 in0.0 mm 0.00 in0.0 mm
02:30 AM 59.2°F15.1°C 52.3°F11.3°C 78% 6.0 mph NNW9.7 kmh NNW 9.8 mph15.8 kmh 29.43 in996.6 mb 0.00 in0.0 mm 0.00 in0.0 mm 0.00 in0.0 mm
02:20 AM 58.8°F14.9°C 52.7°F11.5°C 80% 6.9 mph NNW11.1 kmh NNW 9.2 mph14.8 kmh 29.44 in997.0 mb 0.00 in0.0 mm 0.00 in0.0 mm 0.00 in0.0 mm
02:10 AM 58.6°F14.8°C 52.8°F11.6°C 81% 6.0 mph NNW9.7 kmh NNW 9.8 mph15.8 kmh 29.44 in997.0 mb 0.00 in0.0 mm 0.00 in0.0 mm 0.00 in0.0 mm
02:00 AM 58.3°F14.6°C 52.8°F11.6°C 82% 4.5 mph NNW7.2 kmh NNW 8.3 mph13.4 kmh 29.43 in996.6 mb 0.00 in0.0 mm 0.00 in0.0 mm 0.00 in0.0 mm
01:50 AM 58.8°F14.9°C 53.3°F11.8°C 82% 5.4 mph N8.7 kmh N 12.1 mph19.5 kmh 29.44 in997.0 mb 0.00 in0.0 mm 0.00 in0.0 mm 0.00 in0.0 mm
01:40 AM 58.8°F14.9°C 53.3°F11.8°C 82% 5.4 mph NNW8.7 kmh NNW 8.3 mph13.4 kmh 29.44 in997.0 mb 0.00 in0.0 mm 0.00 in0.0 mm 0.00 in0.0 mm
01:30 AM 59.0°F15.0°C 53.2°F11.8°C 81% 5.4 mph N8.7 kmh N 9.8 mph15.8 kmh 29.43 in996.6 mb 0.00 in0.0 mm 0.00 in0.0 mm 0.00 in0.0 mm
01:20 AM 59.0°F15.0°C 53.9°F12.2°C 83% 3.8 mph NNW6.1 kmh NNW 10.7 mph17.2 kmh 29.44 in997.0 mb 0.00 in0.0 mm 0.00 in0.0 mm 0.00 in0.0 mm
01:10 AM 59.2°F15.1°C 54.0°F12.2°C 83% 3.8 mph N6.1 kmh N 9.8 mph15.8 kmh 29.44 in997.0 mb 0.00 in0.0 mm 0.00 in0.0 mm 0.00 in0.0 mm
01:00 AM 59.4°F15.2°C 54.5°F12.5°C 84% 5.4 mph NNW8.7 kmh NNW 9.8 mph15.8 kmh 29.45 in997.3 mb 0.00 in0.0 mm 0.00 in0.0 mm 0.00 in0.0 mm
12:50 AM 59.2°F15.1°C 55.0°F12.8°C 86% 4.5 mph NNW7.2 kmh NNW 9.2 mph14.8 kmh 29.45 in997.3 mb 0.00 in0.0 mm 0.00 in0.0 mm 0.00 in0.0 mm
12:40 AM 59.4°F15.2°C 56.1°F13.4°C 89% 6.0 mph N9.7 kmh N 9.2 mph14.8 kmh 29.44 in997.0 mb 0.00 in0.0 mm 0.00 in0.0 mm 0.00 in0.0 mm
12:30 AM 59.5°F15.3°C 57.5°F14.2°C 93% 3.1 mph N5.0 kmh N 7.6 mph12.2 kmh 29.44 in997.0 mb 0.00 in0.0 mm 0.00 in0.0 mm 0.00 in0.0 mm
12:20 AM 59.7°F15.4°C 58.9°F14.9°C 97% 3.8 mph N6.1 kmh N 8.3 mph13.4 kmh 29.45 in997.3 mb 0.00 in0.0 mm 0.00 in0.0 mm 0.00 in0.0 mm
12:10 AM 59.7°F15.4°C 59.5°F15.3°C 99% 3.8 mph N6.1 kmh N 7.6 mph12.2 kmh 29.46 in997.6 mb 0.00 in0.0 mm 0.00 in0.0 mm 0.00 in0.0 mm
12:00 AM 59.9°F15.5°C 59.6°F15.3°C 99% 3.8 mph N6.1 kmh N 7.6 mph12.2 kmh 29.46 in997.6 mb 0.00 in0.0 mm 0.00 in0.0 mm 0.00 in0.0 mm